Aviation Digital Data Service (ADDS)

Output produced by METARs form (0716 UTC 02 March 2015)
found at http://aviationweather.gov/adds/metars/
 
KBTV 020540Z 0206/0306 20010KT 6SM -SHSN BR OVC050 
     FM021300 30015G26KT P6SM VCSH OVC040 
     FM021800 30018G28KT P6SM BKN060 
     FM030300 33009KT P6SM BKN250